sensor_id;sensor_type;location;lat;lon;timestamp;P1;durP1;ratioP1;P2;durP2;ratioP2
1507;SDS011;745;48.586;10.032;2023-02-05T00:02:41;3.60;;;3.30;;
1507;SDS011;745;48.586;10.032;2023-02-05T00:07:12;3.43;;;3.13;;
1507;SDS011;745;48.586;10.032;2023-02-05T00:11:42;4.13;;;3.50;;
1507;SDS011;745;48.586;10.032;2023-02-05T00:16:14;8.40;;;5.73;;
1507;SDS011;745;48.586;10.032;2023-02-05T00:20:47;7.80;;;5.37;;
1507;SDS011;745;48.586;10.032;2023-02-05T00:25:18;9.90;;;6.47;;
1507;SDS011;745;48.586;10.032;2023-02-05T00:29:48;6.30;;;4.57;;
1507;SDS011;745;48.586;10.032;2023-02-05T00:34:19;6.77;;;4.10;;
1507;SDS011;745;48.586;10.032;2023-02-05T00:38:49;5.27;;;3.90;;
1507;SDS011;745;48.586;10.032;2023-02-05T00:43:20;3.43;;;2.93;;
1507;SDS011;745;48.586;10.032;2023-02-05T00:47:50;4.43;;;3.67;;
1507;SDS011;745;48.586;10.032;2023-02-05T00:52:21;4.37;;;3.13;;
1507;SDS011;745;48.586;10.032;2023-02-05T00:56:51;3.10;;;2.80;;
1507;SDS011;745;48.586;10.032;2023-02-05T01:01:21;4.07;;;3.30;;
1507;SDS011;745;48.586;10.032;2023-02-05T01:05:52;3.77;;;3.47;;
1507;SDS011;745;48.586;10.032;2023-02-05T01:10:22;4.27;;;3.83;;
1507;SDS011;745;48.586;10.032;2023-02-05T01:14:53;9.40;;;5.73;;
1507;SDS011;745;48.586;10.032;2023-02-05T01:19:23;6.90;;;5.50;;
1507;SDS011;745;48.586;10.032;2023-02-05T01:23:54;8.33;;;5.63;;
1507;SDS011;745;48.586;10.032;2023-02-05T01:28:26;6.50;;;5.37;;
1507;SDS011;745;48.586;10.032;2023-02-05T01:32:56;5.07;;;4.60;;
1507;SDS011;745;48.586;10.032;2023-02-05T01:37:26;6.17;;;4.57;;
1507;SDS011;745;48.586;10.032;2023-02-05T01:41:57;5.83;;;5.00;;
1507;SDS011;745;48.586;10.032;2023-02-05T01:46:28;6.40;;;4.60;;
1507;SDS011;745;48.586;10.032;2023-02-05T01:51:04;4.73;;;4.33;;
1507;SDS011;745;48.586;10.032;2023-02-05T01:55:40;4.90;;;4.50;;
1507;SDS011;745;48.586;10.032;2023-02-05T02:00:13;5.20;;;4.00;;
1507;SDS011;745;48.586;10.032;2023-02-05T02:04:45;5.43;;;3.90;;
1507;SDS011;745;48.586;10.032;2023-02-05T02:09:17;5.07;;;4.37;;
1507;SDS011;745;48.586;10.032;2023-02-05T02:13:47;4.67;;;4.20;;
1507;SDS011;745;48.586;10.032;2023-02-05T02:18:18;4.67;;;4.07;;
1507;SDS011;745;48.586;10.032;2023-02-05T02:32:40;3.33;;;3.03;;
1507;SDS011;745;48.586;10.032;2023-02-05T02:37:17;3.57;;;3.10;;
1507;SDS011;745;48.586;10.032;2023-02-05T02:42:14;5.30;;;4.10;;
1507;SDS011;745;48.586;10.032;2023-02-05T02:46:48;3.77;;;3.47;;
1507;SDS011;745;48.586;10.032;2023-02-05T02:51:20;4.00;;;3.60;;
1507;SDS011;745;48.586;10.032;2023-02-05T02:55:53;3.93;;;3.33;;
1507;SDS011;745;48.586;10.032;2023-02-05T03:00:25;4.10;;;3.70;;
1507;SDS011;745;48.586;10.032;2023-02-05T03:05:18;3.87;;;3.30;;
1507;SDS011;745;48.586;10.032;2023-02-05T03:09:49;3.77;;;2.60;;
1507;SDS011;745;48.586;10.032;2023-02-05T03:14:30;3.30;;;3.00;;
1507;SDS011;745;48.586;10.032;2023-02-05T03:19:01;5.17;;;4.20;;
1507;SDS011;745;48.586;10.032;2023-02-05T03:23:32;5.07;;;3.50;;
1507;SDS011;745;48.586;10.032;2023-02-05T03:28:02;3.90;;;3.50;;
1507;SDS011;745;48.586;10.032;2023-02-05T03:42:29;6.40;;;4.87;;
1507;SDS011;745;48.586;10.032;2023-02-05T03:51:56;7.10;;;6.27;;
1507;SDS011;745;48.586;10.032;2023-02-05T03:56:42;5.93;;;5.20;;
1507;SDS011;745;48.586;10.032;2023-02-05T04:01:15;8.67;;;6.93;;
1507;SDS011;745;48.586;10.032;2023-02-05T04:05:46;8.50;;;7.00;;
1507;SDS011;745;48.586;10.032;2023-02-05T04:10:17;6.13;;;5.00;;
1507;SDS011;745;48.586;10.032;2023-02-05T04:14:48;6.03;;;5.23;;
1507;SDS011;745;48.586;10.032;2023-02-05T04:19:18;6.13;;;4.90;;
1507;SDS011;745;48.586;10.032;2023-02-05T04:23:49;5.93;;;4.60;;
1507;SDS011;745;48.586;10.032;2023-02-05T04:28:20;6.50;;;5.17;;
1507;SDS011;745;48.586;10.032;2023-02-05T04:32:51;4.30;;;3.90;;
1507;SDS011;745;48.586;10.032;2023-02-05T04:37:21;7.77;;;4.97;;
1507;SDS011;745;48.586;10.032;2023-02-05T04:41:53;5.70;;;4.60;;
1507;SDS011;745;48.586;10.032;2023-02-05T04:46:24;6.53;;;5.30;;
1507;SDS011;745;48.586;10.032;2023-02-05T04:50:54;7.50;;;5.77;;
1507;SDS011;745;48.586;10.032;2023-02-05T04:55:24;8.07;;;5.77;;
1507;SDS011;745;48.586;10.032;2023-02-05T04:59:55;7.63;;;6.37;;
1507;SDS011;745;48.586;10.032;2023-02-05T05:04:25;8.13;;;6.87;;
1507;SDS011;745;48.586;10.032;2023-02-05T05:08:56;7.73;;;6.93;;
1507;SDS011;745;48.586;10.032;2023-02-05T05:13:26;8.60;;;7.70;;
1507;SDS011;745;48.586;10.032;2023-02-05T05:17:57;10.10;;;7.77;;
1507;SDS011;745;48.586;10.032;2023-02-05T05:22:27;9.90;;;7.87;;
1507;SDS011;745;48.586;10.032;2023-02-05T05:26:58;8.77;;;7.33;;
1507;SDS011;745;48.586;10.032;2023-02-05T05:31:28;7.07;;;6.33;;
1507;SDS011;745;48.586;10.032;2023-02-05T05:35:59;8.70;;;6.97;;
1507;SDS011;745;48.586;10.032;2023-02-05T05:40:30;7.53;;;6.80;;
1507;SDS011;745;48.586;10.032;2023-02-05T05:45:19;9.83;;;7.23;;
1507;SDS011;745;48.586;10.032;2023-02-05T05:49:49;9.17;;;7.53;;
1507;SDS011;745;48.586;10.032;2023-02-05T05:54:20;9.80;;;8.27;;
1507;SDS011;745;48.586;10.032;2023-02-05T05:58:50;12.50;;;10.07;;
1507;SDS011;745;48.586;10.032;2023-02-05T06:03:20;9.27;;;8.20;;
1507;SDS011;745;48.586;10.032;2023-02-05T06:07:51;9.40;;;8.17;;
1507;SDS011;745;48.586;10.032;2023-02-05T06:12:21;10.03;;;9.00;;
1507;SDS011;745;48.586;10.032;2023-02-05T06:16:51;11.23;;;7.40;;
1507;SDS011;745;48.586;10.032;2023-02-05T06:21:24;11.83;;;10.20;;
1507;SDS011;745;48.586;10.032;2023-02-05T06:25:54;12.20;;;10.10;;
1507;SDS011;745;48.586;10.032;2023-02-05T06:30:24;9.93;;;8.83;;
1507;SDS011;745;48.586;10.032;2023-02-05T06:34:56;11.77;;;9.40;;
1507;SDS011;745;48.586;10.032;2023-02-05T06:39:26;9.50;;;8.30;;
1507;SDS011;745;48.586;10.032;2023-02-05T06:43:57;10.53;;;8.50;;
1507;SDS011;745;48.586;10.032;2023-02-05T06:48:27;11.07;;;8.63;;
1507;SDS011;745;48.586;10.032;2023-02-05T06:52:57;8.20;;;6.50;;
1507;SDS011;745;48.586;10.032;2023-02-05T06:57:28;9.60;;;7.50;;
1507;SDS011;745;48.586;10.032;2023-02-05T07:01:58;7.83;;;7.00;;
1507;SDS011;745;48.586;10.032;2023-02-05T07:06:29;7.60;;;6.80;;
1507;SDS011;745;48.586;10.032;2023-02-05T07:10:59;10.33;;;8.37;;
1507;SDS011;745;48.586;10.032;2023-02-05T07:15:30;14.30;;;10.10;;
1507;SDS011;745;48.586;10.032;2023-02-05T07:20:00;14.37;;;9.80;;
1507;SDS011;745;48.586;10.032;2023-02-05T07:24:30;11.70;;;10.13;;
1507;SDS011;745;48.586;10.032;2023-02-05T07:29:01;11.50;;;10.40;;
1507;SDS011;745;48.586;10.032;2023-02-05T07:33:32;12.23;;;10.30;;
1507;SDS011;745;48.586;10.032;2023-02-05T07:38:02;10.13;;;8.70;;
1507;SDS011;745;48.586;10.032;2023-02-05T07:42:33;10.50;;;9.50;;
1507;SDS011;745;48.586;10.032;2023-02-05T07:47:03;10.10;;;9.07;;
1507;SDS011;745;48.586;10.032;2023-02-05T07:51:34;10.77;;;9.73;;
1507;SDS011;745;48.586;10.032;2023-02-05T07:56:04;12.10;;;9.47;;
1507;SDS011;745;48.586;10.032;2023-02-05T08:00:35;9.07;;;8.13;;
1507;SDS011;745;48.586;10.032;2023-02-05T08:05:05;9.00;;;8.10;;
1507;SDS011;745;48.586;10.032;2023-02-05T08:09:36;9.03;;;8.13;;
1507;SDS011;745;48.586;10.032;2023-02-05T08:14:07;16.20;;;11.37;;
1507;SDS011;745;48.586;10.032;2023-02-05T08:18:37;15.20;;;13.43;;
1507;SDS011;745;48.586;10.032;2023-02-05T08:23:08;12.07;;;10.87;;
1507;SDS011;745;48.586;10.032;2023-02-05T08:27:39;12.57;;;11.37;;
1507;SDS011;745;48.586;10.032;2023-02-05T08:32:10;12.33;;;11.03;;
1507;SDS011;745;48.586;10.032;2023-02-05T08:36:40;12.00;;;10.67;;
1507;SDS011;745;48.586;10.032;2023-02-05T08:41:11;12.70;;;10.53;;
1507;SDS011;745;48.586;10.032;2023-02-05T08:45:44;13.20;;;10.77;;
1507;SDS011;745;48.586;10.032;2023-02-05T08:50:15;13.70;;;11.70;;
1507;SDS011;745;48.586;10.032;2023-02-05T08:54:46;12.50;;;11.23;;
1507;SDS011;745;48.586;10.032;2023-02-05T08:59:17;16.80;;;15.30;;
1507;SDS011;745;48.586;10.032;2023-02-05T09:03:48;15.97;;;13.33;;
1507;SDS011;745;48.586;10.032;2023-02-05T09:08:18;16.07;;;13.00;;
1507;SDS011;745;48.586;10.032;2023-02-05T09:12:49;12.97;;;11.33;;
1507;SDS011;745;48.586;10.032;2023-02-05T09:17:19;13.43;;;12.03;;
1507;SDS011;745;48.586;10.032;2023-02-05T09:21:50;19.70;;;14.67;;
1507;SDS011;745;48.586;10.032;2023-02-05T09:26:21;21.23;;;15.43;;
1507;SDS011;745;48.586;10.032;2023-02-05T09:30:52;16.27;;;13.27;;
1507;SDS011;745;48.586;10.032;2023-02-05T09:35:22;12.80;;;10.47;;
1507;SDS011;745;48.586;10.032;2023-02-05T09:39:53;12.60;;;11.00;;
1507;SDS011;745;48.586;10.032;2023-02-05T09:44:45;10.87;;;9.40;;
1507;SDS011;745;48.586;10.032;2023-02-05T09:49:34;12.23;;;10.93;;
1507;SDS011;745;48.586;10.032;2023-02-05T09:58:58;14.60;;;11.63;;
1507;SDS011;745;48.586;10.032;2023-02-05T10:27:18;15.80;;;13.87;;
1507;SDS011;745;48.586;10.032;2023-02-05T10:36:45;13.30;;;11.47;;
1507;SDS011;745;48.586;10.032;2023-02-05T10:41:38;14.70;;;12.57;;
1507;SDS011;745;48.586;10.032;2023-02-05T10:46:12;22.23;;;15.20;;
1507;SDS011;745;48.586;10.032;2023-02-05T10:51:00;14.60;;;13.03;;
1507;SDS011;745;48.586;10.032;2023-02-05T10:55:31;16.10;;;12.53;;
1507;SDS011;745;48.586;10.032;2023-02-05T11:00:04;19.77;;;13.50;;
1507;SDS011;745;48.586;10.032;2023-02-05T11:04:51;18.23;;;13.20;;
1507;SDS011;745;48.586;10.032;2023-02-05T11:13:59;17.10;;;13.07;;
1507;SDS011;745;48.586;10.032;2023-02-05T11:18:35;16.80;;;12.00;;
1507;SDS011;745;48.586;10.032;2023-02-05T11:23:19;14.93;;;12.13;;
1507;SDS011;745;48.586;10.032;2023-02-05T11:32:32;14.83;;;12.20;;
1507;SDS011;745;48.586;10.032;2023-02-05T11:37:04;14.03;;;10.70;;
1507;SDS011;745;48.586;10.032;2023-02-05T11:41:35;12.83;;;9.50;;
1507;SDS011;745;48.586;10.032;2023-02-05T11:46:21;13.50;;;10.10;;
1507;SDS011;745;48.586;10.032;2023-02-05T11:50:53;13.90;;;9.90;;
1507;SDS011;745;48.586;10.032;2023-02-05T11:55:27;11.67;;;9.87;;
1507;SDS011;745;48.586;10.032;2023-02-05T12:04:38;14.70;;;11.00;;
1507;SDS011;745;48.586;10.032;2023-02-05T12:09:16;12.93;;;11.13;;
1507;SDS011;745;48.586;10.032;2023-02-05T12:23:27;15.37;;;11.40;;
1507;SDS011;745;48.586;10.032;2023-02-05T12:46:59;16.07;;;12.30;;
1507;SDS011;745;48.586;10.032;2023-02-05T13:00:59;18.13;;;12.13;;
1507;SDS011;745;48.586;10.032;2023-02-05T13:05:35;15.10;;;11.33;;
1507;SDS011;745;48.586;10.032;2023-02-05T13:10:20;16.17;;;12.53;;
1507;SDS011;745;48.586;10.032;2023-02-05T13:19:42;19.20;;;14.10;;
1507;SDS011;745;48.586;10.032;2023-02-05T13:24:27;14.70;;;12.50;;
1507;SDS011;745;48.586;10.032;2023-02-05T13:29:20;18.23;;;12.90;;
1507;SDS011;745;48.586;10.032;2023-02-05T13:33:53;14.97;;;11.80;;
1507;SDS011;745;48.586;10.032;2023-02-05T13:43:29;13.97;;;11.20;;
1507;SDS011;745;48.586;10.032;2023-02-05T13:48:11;14.73;;;11.53;;
1507;SDS011;745;48.586;10.032;2023-02-05T13:52:54;18.10;;;13.40;;
1507;SDS011;745;48.586;10.032;2023-02-05T14:02:50;16.20;;;11.50;;
1507;SDS011;745;48.586;10.032;2023-02-05T14:07:25;17.80;;;12.60;;
1507;SDS011;745;48.586;10.032;2023-02-05T14:11:58;12.57;;;11.27;;
1507;SDS011;745;48.586;10.032;2023-02-05T14:16:33;11.83;;;9.27;;
1507;SDS011;745;48.586;10.032;2023-02-05T14:26:04;11.17;;;9.00;;
1507;SDS011;745;48.586;10.032;2023-02-05T14:30:36;10.30;;;8.87;;
1507;SDS011;745;48.586;10.032;2023-02-05T14:35:35;10.43;;;8.60;;
1507;SDS011;745;48.586;10.032;2023-02-05T14:40:19;9.40;;;7.80;;
1507;SDS011;745;48.586;10.032;2023-02-05T14:44:52;7.70;;;6.90;;
1507;SDS011;745;48.586;10.032;2023-02-05T14:49:34;7.53;;;6.77;;
1507;SDS011;745;48.586;10.032;2023-02-05T14:54:43;6.57;;;5.53;;
1507;SDS011;745;48.586;10.032;2023-02-05T14:59:20;6.90;;;5.90;;
1507;SDS011;745;48.586;10.032;2023-02-05T15:03:53;6.27;;;5.67;;
1507;SDS011;745;48.586;10.032;2023-02-05T15:13:01;5.60;;;5.10;;
1507;SDS011;745;48.586;10.032;2023-02-05T15:17:45;7.00;;;6.30;;
1507;SDS011;745;48.586;10.032;2023-02-05T15:26:54;8.03;;;7.23;;
1507;SDS011;745;48.586;10.032;2023-02-05T15:36:21;7.50;;;6.80;;
1507;SDS011;745;48.586;10.032;2023-02-05T15:40:56;7.47;;;6.40;;
1507;SDS011;745;48.586;10.032;2023-02-05T15:45:32;9.03;;;8.13;;
1507;SDS011;745;48.586;10.032;2023-02-05T15:50:03;8.17;;;7.30;;
1507;SDS011;745;48.586;10.032;2023-02-05T15:54:34;11.83;;;10.50;;
1507;SDS011;745;48.586;10.032;2023-02-05T16:03:38;10.83;;;8.73;;
1507;SDS011;745;48.586;10.032;2023-02-05T16:08:16;8.77;;;7.80;;
1507;SDS011;745;48.586;10.032;2023-02-05T16:13:00;10.37;;;9.00;;
1507;SDS011;745;48.586;10.032;2023-02-05T16:22:09;8.03;;;7.07;;
1507;SDS011;745;48.586;10.032;2023-02-05T16:26:45;9.47;;;8.23;;
1507;SDS011;745;48.586;10.032;2023-02-05T16:31:20;8.93;;;7.83;;
1507;SDS011;745;48.586;10.032;2023-02-05T16:35:52;7.63;;;6.83;;
1507;SDS011;745;48.586;10.032;2023-02-05T16:40:42;6.63;;;5.93;;
1507;SDS011;745;48.586;10.032;2023-02-05T16:45:19;5.20;;;4.70;;
1507;SDS011;745;48.586;10.032;2023-02-05T16:49:51;5.90;;;4.83;;
1507;SDS011;745;48.586;10.032;2023-02-05T16:54:32;5.60;;;5.00;;
1507;SDS011;745;48.586;10.032;2023-02-05T16:59:03;3.60;;;3.30;;
1507;SDS011;745;48.586;10.032;2023-02-05T17:03:35;4.83;;;4.43;;
1507;SDS011;745;48.586;10.032;2023-02-05T17:08:08;5.80;;;4.20;;
1507;SDS011;745;48.586;10.032;2023-02-05T17:12:45;4.77;;;4.37;;
1507;SDS011;745;48.586;10.032;2023-02-05T17:17:16;3.83;;;3.53;;
1507;SDS011;745;48.586;10.032;2023-02-05T17:21:48;3.10;;;2.90;;
1507;SDS011;745;48.586;10.032;2023-02-05T17:26:43;3.40;;;3.10;;
1507;SDS011;745;48.586;10.032;2023-02-05T17:31:14;4.53;;;4.13;;
1507;SDS011;745;48.586;10.032;2023-02-05T17:35:46;3.97;;;3.67;;
1507;SDS011;745;48.586;10.032;2023-02-05T17:40:17;3.57;;;3.27;;
1507;SDS011;745;48.586;10.032;2023-02-05T17:44:49;4.60;;;4.20;;
1507;SDS011;745;48.586;10.032;2023-02-05T17:49:19;4.33;;;4.00;;
1507;SDS011;745;48.586;10.032;2023-02-05T17:53:50;3.60;;;3.30;;
1507;SDS011;745;48.586;10.032;2023-02-05T17:58:20;5.27;;;4.40;;
1507;SDS011;745;48.586;10.032;2023-02-05T18:02:51;5.20;;;4.70;;
1507;SDS011;745;48.586;10.032;2023-02-05T18:12:14;4.40;;;4.00;;
1507;SDS011;745;48.586;10.032;2023-02-05T18:16:44;4.80;;;4.40;;
1507;SDS011;745;48.586;10.032;2023-02-05T18:21:15;5.13;;;4.63;;
1507;SDS011;745;48.586;10.032;2023-02-05T18:25:45;5.10;;;4.23;;
1507;SDS011;745;48.586;10.032;2023-02-05T18:30:16;5.67;;;4.77;;
1507;SDS011;745;48.586;10.032;2023-02-05T18:34:46;8.10;;;7.20;;
1507;SDS011;745;48.586;10.032;2023-02-05T18:39:17;7.10;;;6.40;;
1507;SDS011;745;48.586;10.032;2023-02-05T18:43:48;6.63;;;5.50;;
1507;SDS011;745;48.586;10.032;2023-02-05T18:48:22;7.03;;;6.13;;
1507;SDS011;745;48.586;10.032;2023-02-05T18:52:52;7.40;;;6.70;;
1507;SDS011;745;48.586;10.032;2023-02-05T18:57:23;7.43;;;5.80;;
1507;SDS011;745;48.586;10.032;2023-02-05T19:01:53;7.50;;;6.63;;
1507;SDS011;745;48.586;10.032;2023-02-05T19:06:23;8.80;;;7.13;;
1507;SDS011;745;48.586;10.032;2023-02-05T19:10:54;9.30;;;7.37;;
1507;SDS011;745;48.586;10.032;2023-02-05T19:15:24;9.87;;;7.43;;
1507;SDS011;745;48.586;10.032;2023-02-05T19:19:54;8.47;;;7.07;;
1507;SDS011;745;48.586;10.032;2023-02-05T19:24:25;7.53;;;6.77;;
1507;SDS011;745;48.586;10.032;2023-02-05T19:28:56;9.00;;;7.63;;
1507;SDS011;745;48.586;10.032;2023-02-05T19:33:28;14.00;;;9.77;;
1507;SDS011;745;48.586;10.032;2023-02-05T19:37:59;17.27;;;10.57;;
1507;SDS011;745;48.586;10.032;2023-02-05T19:42:30;15.27;;;10.10;;
1507;SDS011;745;48.586;10.032;2023-02-05T19:47:00;16.33;;;11.23;;
1507;SDS011;745;48.586;10.032;2023-02-05T19:51:31;15.27;;;11.27;;
1507;SDS011;745;48.586;10.032;2023-02-05T19:56:02;14.70;;;10.20;;
1507;SDS011;745;48.586;10.032;2023-02-05T20:00:36;12.27;;;9.10;;
1507;SDS011;745;48.586;10.032;2023-02-05T20:05:06;14.27;;;9.03;;
1507;SDS011;745;48.586;10.032;2023-02-05T20:09:37;14.00;;;10.40;;
1507;SDS011;745;48.586;10.032;2023-02-05T20:14:07;14.33;;;8.90;;
1507;SDS011;745;48.586;10.032;2023-02-05T20:18:39;12.93;;;7.53;;
1507;SDS011;745;48.586;10.032;2023-02-05T20:23:10;11.93;;;8.20;;
1507;SDS011;745;48.586;10.032;2023-02-05T20:27:41;9.13;;;7.30;;
1507;SDS011;745;48.586;10.032;2023-02-05T20:32:11;11.70;;;8.37;;
1507;SDS011;745;48.586;10.032;2023-02-05T20:36:41;11.13;;;7.90;;
1507;SDS011;745;48.586;10.032;2023-02-05T20:41:13;9.70;;;6.97;;
1507;SDS011;745;48.586;10.032;2023-02-05T20:45:44;9.67;;;7.00;;
1507;SDS011;745;48.586;10.032;2023-02-05T20:50:14;9.67;;;7.20;;
1507;SDS011;745;48.586;10.032;2023-02-05T20:54:45;8.47;;;6.30;;
1507;SDS011;745;48.586;10.032;2023-02-05T20:59:15;10.80;;;7.80;;
1507;SDS011;745;48.586;10.032;2023-02-05T21:03:46;10.03;;;7.20;;
1507;SDS011;745;48.586;10.032;2023-02-05T21:08:18;11.73;;;8.63;;
1507;SDS011;745;48.586;10.032;2023-02-05T21:12:48;11.57;;;8.40;;
1507;SDS011;745;48.586;10.032;2023-02-05T21:17:19;17.20;;;12.00;;
1507;SDS011;745;48.586;10.032;2023-02-05T21:21:49;18.10;;;11.50;;
1507;SDS011;745;48.586;10.032;2023-02-05T21:26:21;17.80;;;11.60;;
1507;SDS011;745;48.586;10.032;2023-02-05T21:31:03;17.97;;;11.13;;
1507;SDS011;745;48.586;10.032;2023-02-05T21:35:36;17.87;;;13.00;;
1507;SDS011;745;48.586;10.032;2023-02-05T21:40:07;19.50;;;11.80;;
1507;SDS011;745;48.586;10.032;2023-02-05T21:44:38;19.90;;;11.30;;
1507;SDS011;745;48.586;10.032;2023-02-05T21:49:09;18.40;;;11.77;;
1507;SDS011;745;48.586;10.032;2023-02-05T21:53:40;16.77;;;11.07;;
1507;SDS011;745;48.586;10.032;2023-02-05T21:58:11;17.73;;;11.17;;
1507;SDS011;745;48.586;10.032;2023-02-05T22:02:41;16.20;;;10.40;;
1507;SDS011;745;48.586;10.032;2023-02-05T22:07:11;15.77;;;10.80;;
1507;SDS011;745;48.586;10.032;2023-02-05T22:11:42;14.33;;;10.37;;
1507;SDS011;745;48.586;10.032;2023-02-05T22:16:14;16.07;;;10.60;;
1507;SDS011;745;48.586;10.032;2023-02-05T22:20:47;16.70;;;10.80;;
1507;SDS011;745;48.586;10.032;2023-02-05T22:25:17;17.40;;;11.10;;
1507;SDS011;745;48.586;10.032;2023-02-05T22:29:48;20.93;;;13.27;;
1507;SDS011;745;48.586;10.032;2023-02-05T22:34:19;18.20;;;11.70;;
1507;SDS011;745;48.586;10.032;2023-02-05T22:38:51;19.80;;;12.23;;
1507;SDS011;745;48.586;10.032;2023-02-05T22:43:21;17.43;;;11.13;;
1507;SDS011;745;48.586;10.032;2023-02-05T22:47:52;14.00;;;9.83;;
1507;SDS011;745;48.586;10.032;2023-02-05T22:52:22;15.63;;;10.57;;
1507;SDS011;745;48.586;10.032;2023-02-05T22:56:52;21.37;;;13.00;;
1507;SDS011;745;48.586;10.032;2023-02-05T23:01:24;19.03;;;11.70;;
1507;SDS011;745;48.586;10.032;2023-02-05T23:05:56;14.93;;;10.20;;
1507;SDS011;745;48.586;10.032;2023-02-05T23:10:27;17.60;;;11.30;;
1507;SDS011;745;48.586;10.032;2023-02-05T23:14:58;15.17;;;9.93;;
1507;SDS011;745;48.586;10.032;2023-02-05T23:19:28;17.10;;;11.97;;
1507;SDS011;745;48.586;10.032;2023-02-05T23:23:59;17.10;;;11.40;;
1507;SDS011;745;48.586;10.032;2023-02-05T23:28:30;23.27;;;14.60;;
1507;SDS011;745;48.586;10.032;2023-02-05T23:33:00;20.97;;;13.17;;
1507;SDS011;745;48.586;10.032;2023-02-05T23:37:30;29.77;;;16.47;;
1507;SDS011;745;48.586;10.032;2023-02-05T23:42:01;25.50;;;15.40;;
1507;SDS011;745;48.586;10.032;2023-02-05T23:46:33;29.77;;;15.67;;
1507;SDS011;745;48.586;10.032;2023-02-05T23:51:03;29.93;;;17.57;;
1507;SDS011;745;48.586;10.032;2023-02-05T23:55:40;33.37;;;18.97;;
